Time;durP1;ratioP1;P1;durP2;ratioP2;P2;SDS_P1;SDS_P2;PMS_P1;PMS_P2;Temp;Humidity;BMP_temperature;BMP_pressure;BME280_temperature;BME280_humidity;BME280_pressure;Samples;Min_cycle;Max_cycle;Signal;HPM_P1;HPM_P2
2022/10/08 00:01:55;;;;;;;13.13;10.80;;;10.30;99.90;;;;;;5125045;27;20291;-86
2022/10/08 00:04:22;;;;;;;12.50;11.23;;;10.30;99.90;;;;;;5131138;27;20298;-86
2022/10/08 00:06:49;;;;;;;14.98;12.00;;;10.30;99.90;;;;;;5124469;27;20267;-86
2022/10/08 00:09:16;;;;;;;12.40;11.00;;;10.10;99.90;;;;;;5131278;27;20286;-86
2022/10/08 00:11:46;;;;;;;11.77;10.52;;;10.10;99.90;;;;;;5125227;27;20263;-87
2022/10/08 00:14:14;;;;;;;14.32;11.30;;;10.00;99.90;;;;;;5128837;28;20246;-86
2022/10/08 00:16:42;;;;;;;12.40;11.02;;;10.00;99.90;;;;;;5130353;27;20617;-86
2022/10/08 00:19:12;;;;;;;11.73;10.52;;;10.00;99.90;;;;;;5127844;27;20206;-86
2022/10/08 00:21:41;;;;;;;12.18;10.80;;;10.00;99.90;;;;;;5124526;27;20200;-86
2022/10/08 00:24:12;;;;;;;12.25;10.05;;;10.00;99.90;;;;;;5127033;28;20203;-86
2022/10/08 00:26:40;;;;;;;11.18;10.07;;;9.90;99.90;;;;;;5123354;28;20200;-86
2022/10/08 00:29:09;;;;;;;12.65;10.45;;;10.00;99.90;;;;;;5130698;27;20546;-87
2022/10/08 00:31:40;;;;;;;11.85;10.65;;;10.00;99.90;;;;;;5117340;27;20242;-86
2022/10/08 00:34:09;;;;;;;11.80;10.57;;;10.00;99.90;;;;;;5130518;28;20413;-87
2022/10/08 00:36:40;;;;;;;12.02;9.98;;;9.90;99.90;;;;;;5115523;27;20208;-87
2022/10/08 00:39:11;;;;;;;12.15;10.48;;;9.90;99.90;;;;;;5121292;27;20311;-87
2022/10/08 00:41:39;;;;;;;11.23;10.02;;;9.90;99.90;;;;;;5126306;27;20286;-87
2022/10/08 00:44:39;;;;;;;13.27;10.93;;;10.00;99.90;;;;;;5125966;28;20211;-87
2022/10/08 00:47:15;;;;;;;12.02;10.68;;;9.90;99.90;;;;;;5125908;28;20282;-86
2022/10/08 00:49:47;;;;;;;12.32;11.00;;;9.80;99.90;;;;;;5128665;27;20733;-86
2022/10/08 00:52:15;;;;;;;12.70;10.85;;;9.70;99.90;;;;;;5121684;28;20227;-87
2022/10/08 00:54:42;;;;;;;13.93;11.20;;;9.70;99.90;;;;;;5129178;27;20204;-86
2022/10/08 00:57:09;;;;;;;12.20;10.15;;;9.60;99.90;;;;;;5125532;27;20206;-87
2022/10/08 00:59:37;;;;;;;15.38;11.88;;;9.60;99.90;;;;;;5118353;28;20278;-87
2022/10/08 01:02:07;;;;;;;13.77;11.20;;;9.70;99.90;;;;;;5126796;27;20615;-86
2022/10/08 01:04:36;;;;;;;13.82;11.38;;;9.60;99.90;;;;;;5117558;27;20262;-87
2022/10/08 01:07:12;;;;;;;12.15;10.85;;;9.60;99.90;;;;;;5106731;28;20214;-87
2022/10/08 01:09:44;;;;;;;12.68;11.23;;;9.60;99.90;;;;;;5104511;28;20202;-87
2022/10/08 01:12:21;;;;;;;13.07;11.65;;;9.60;99.90;;;;;;5104757;28;20564;-87
2022/10/08 01:14:58;;;;;;;12.90;11.18;;;9.60;99.90;;;;;;5113351;28;20245;-86
2022/10/08 01:17:34;;;;;;;14.35;11.82;;;9.60;99.90;;;;;;5111175;28;20204;-88
2022/10/08 01:20:29;;;;;;;13.23;11.77;;;9.60;99.90;;;;;;5109341;28;20643;-87
2022/10/08 01:23:24;;;;;;;14.35;10.90;;;9.50;99.90;;;;;;5111475;28;20207;-87
2022/10/08 01:25:56;;;;;;;12.85;11.18;;;9.50;99.90;;;;;;5116294;28;20198;-86
2022/10/08 01:28:40;;;;;;;13.32;11.93;;;9.50;99.90;;;;;;5117421;28;20259;-86
2022/10/08 01:31:11;;;;;;;14.15;11.43;;;9.50;99.90;;;;;;5104592;28;20202;-86
2022/10/08 01:33:47;;;;;;;14.57;11.55;;;9.50;99.90;;;;;;5115955;28;20207;-86
2022/10/08 01:36:17;;;;;;;13.70;11.02;;;9.50;99.90;;;;;;5106802;28;20279;-86
2022/10/08 01:38:48;;;;;;;12.48;11.18;;;9.60;99.90;;;;;;5113990;28;20196;-87
2022/10/08 01:41:17;;;;;;;13.68;11.68;;;9.60;99.90;;;;;;5106600;28;20193;-86
2022/10/08 01:43:53;;;;;;;13.20;11.38;;;9.60;99.90;;;;;;5110338;28;20286;-85
2022/10/08 01:46:30;;;;;;;14.85;11.43;;;9.60;99.90;;;;;;5113986;28;20215;-86
2022/10/08 01:49:21;;;;;;;14.38;11.90;;;9.60;99.90;;;;;;5108030;28;20191;-86
2022/10/08 01:51:53;;;;;;;13.20;11.80;;;9.60;99.90;;;;;;5106762;28;20201;-86
2022/10/08 01:54:47;;;;;;;11.85;10.60;;;9.60;99.90;;;;;;5106812;28;20227;-87
2022/10/08 01:57:15;;;;;;;13.75;11.25;;;9.60;99.90;;;;;;5106042;28;20786;-86
2022/10/08 02:00:05;;;;;;;12.82;11.27;;;9.60;99.90;;;;;;5113114;28;20211;-86
2022/10/08 02:02:33;;;;;;;12.95;11.35;;;9.60;99.90;;;;;;5112889;28;20247;-86
2022/10/08 02:05:15;;;;;;;14.45;11.48;;;9.50;99.90;;;;;;5110491;28;20226;-86
2022/10/08 02:07:53;;;;;;;12.80;11.48;;;9.50;99.90;;;;;;5113926;28;20198;-86
2022/10/08 02:10:23;;;;;;;12.55;11.18;;;9.40;99.90;;;;;;5112741;28;20207;-85
2022/10/08 02:12:52;;;;;;;14.27;11.15;;;9.50;99.90;;;;;;5111813;28;20196;-85
2022/10/08 02:15:40;;;;;;;12.43;11.13;;;9.40;99.90;;;;;;5105132;28;20210;-86
2022/10/08 02:18:15;;;;;;;13.25;11.27;;;9.50;99.90;;;;;;5103520;28;20201;-86
2022/10/08 02:20:49;;;;;;;12.70;11.00;;;9.40;99.90;;;;;;5108898;28;20192;-86
2022/10/08 02:23:21;;;;;;;13.48;10.55;;;9.40;99.90;;;;;;5105090;28;20196;-86
2022/10/08 02:26:00;;;;;;;12.25;10.90;;;9.40;99.90;;;;;;5113600;28;20210;-85
2022/10/08 02:28:36;;;;;;;12.38;11.07;;;9.50;99.90;;;;;;5116105;28;20276;-85
2022/10/08 02:31:09;;;;;;;14.80;11.07;;;9.50;99.90;;;;;;5115108;28;20565;-86
2022/10/08 02:33:44;;;;;;;13.98;10.88;;;9.60;99.90;;;;;;5105785;28;20211;-85
2022/10/08 02:36:14;;;;;;;12.32;11.02;;;9.70;99.90;;;;;;5104298;28;20200;-86
2022/10/08 02:38:51;;;;;;;13.43;10.48;;;9.70;99.90;;;;;;5099390;28;20707;-86
2022/10/08 02:41:31;;;;;;;14.88;10.88;;;9.70;99.90;;;;;;5112268;28;20198;-85
2022/10/08 02:44:24;;;;;;;11.05;9.95;;;9.60;99.90;;;;;;5106323;28;20188;-86
2022/10/08 02:47:12;;;;;;;11.60;10.07;;;9.60;99.90;;;;;;5102130;28;20280;-86
2022/10/08 02:49:42;;;;;;;11.40;9.25;;;9.50;99.90;;;;;;5111329;28;20279;-86
2022/10/08 02:52:10;;;;;;;11.05;9.95;;;9.50;99.90;;;;;;5111687;28;20547;-86
2022/10/08 02:54:43;;;;;;;13.68;10.25;;;9.50;99.90;;;;;;5115912;28;20294;-86
2022/10/08 02:57:19;;;;;;;11.07;9.45;;;9.50;99.90;;;;;;5106110;28;21876;-86
2022/10/08 02:59:52;;;;;;;11.77;9.85;;;9.50;99.90;;;;;;5111614;28;20282;-86
2022/10/08 03:02:31;;;;;;;12.98;9.80;;;9.40;99.90;;;;;;5114905;28;20283;-86
2022/10/08 03:05:21;;;;;;;11.35;9.85;;;9.50;99.90;;;;;;5111167;28;20211;-86
2022/10/08 03:07:54;;;;;;;11.20;9.70;;;9.50;99.90;;;;;;5109463;28;20280;-86
2022/10/08 03:10:45;;;;;;;11.93;8.95;;;9.50;99.90;;;;;;5110783;28;20252;-86
2022/10/08 03:13:17;;;;;;;9.27;8.35;;;9.50;99.90;;;;;;5111022;28;20253;-86
2022/10/08 03:15:47;;;;;;;12.02;8.82;;;9.50;99.90;;;;;;5113204;28;20204;-86
2022/10/08 03:18:16;;;;;;;9.75;8.73;;;9.60;99.90;;;;;;5110349;27;20235;-86
2022/10/08 03:20:49;;;;;;;9.57;8.65;;;9.70;99.90;;;;;;5110572;28;20717;-87
2022/10/08 03:23:21;;;;;;;8.93;8.02;;;9.80;99.90;;;;;;5105859;28;20199;-86
2022/10/08 03:25:48;;;;;;;11.63;7.93;;;9.90;99.90;;;;;;5107086;28;20777;-86
2022/10/08 03:28:45;;;;;;;9.05;8.15;;;10.00;99.90;;;;;;5110522;28;20291;-86
2022/10/08 03:31:15;;;;;;;8.57;7.78;;;9.90;99.90;;;;;;5101373;28;20283;-86
2022/10/08 03:33:53;;;;;;;11.88;7.85;;;10.00;99.90;;;;;;5102825;28;20626;-86
2022/10/08 03:36:22;;;;;;;10.30;8.27;;;10.00;99.90;;;;;;5106992;28;20287;-86
2022/10/08 03:38:58;;;;;;;9.90;8.05;;;10.00;99.90;;;;;;5112332;28;20287;-86
2022/10/08 03:41:25;;;;;;;12.30;7.90;;;10.10;99.90;;;;;;5109117;28;20283;-88
2022/10/08 03:43:52;;;;;;;17.08;8.02;;;10.00;99.90;;;;;;5113662;28;20267;-87
2022/10/08 03:46:39;;;;;;;11.68;7.72;;;9.90;99.90;;;;;;5108492;28;20227;-86
2022/10/08 03:49:11;;;;;;;13.65;8.10;;;9.90;99.90;;;;;;5102868;28;20283;-86
2022/10/08 03:51:55;;;;;;;9.25;8.05;;;9.80;99.90;;;;;;5097490;28;20195;-86
2022/10/08 03:54:27;;;;;;;10.32;7.63;;;9.70;99.90;;;;;;5107927;28;20302;-86
2022/10/08 03:56:57;;;;;;;7.97;7.18;;;9.80;99.90;;;;;;5106721;28;20280;-86
2022/10/08 03:59:24;;;;;;;9.48;7.75;;;9.70;99.90;;;;;;5109360;28;20256;-87
2022/10/08 04:01:57;;;;;;;8.93;7.13;;;9.80;99.90;;;;;;5109164;28;21002;-86
2022/10/08 04:05:09;;;;;;;8.48;7.43;;;9.90;99.90;;;;;;5102996;28;20291;-86
2022/10/08 04:07:37;;;;;;;8.02;7.15;;;9.90;99.90;;;;;;5104269;28;20195;-86
2022/10/08 04:10:21;;;;;;;8.13;7.20;;;10.00;99.90;;;;;;5105836;28;20279;-86
2022/10/08 04:13:03;;;;;;;7.50;6.57;;;10.10;99.90;;;;;;5113990;28;20192;-86
2022/10/08 04:15:33;;;;;;;8.07;6.68;;;10.10;99.90;;;;;;5116469;28;20220;-87
2022/10/08 04:18:11;;;;;;;8.15;7.03;;;10.20;99.90;;;;;;5109379;28;20554;-87
2022/10/08 04:20:58;;;;;;;8.82;6.57;;;10.20;99.90;;;;;;5103992;28;20670;-86
2022/10/08 04:23:27;;;;;;;7.50;6.75;;;10.20;99.90;;;;;;5101417;28;20353;-87
2022/10/08 04:26:04;;;;;;;6.88;6.18;;;10.20;99.90;;;;;;5104259;28;20196;-86
2022/10/08 04:28:46;;;;;;;7.57;6.70;;;10.20;99.90;;;;;;5109865;28;20270;-87
2022/10/08 04:31:17;;;;;;;9.93;6.82;;;10.20;99.90;;;;;;5102133;28;20189;-87
2022/10/08 04:33:52;;;;;;;8.02;6.43;;;10.30;99.90;;;;;;5103311;28;20283;-86
2022/10/08 04:36:24;;;;;;;7.65;6.55;;;10.20;99.90;;;;;;5108627;28;20202;-86
2022/10/08 04:38:56;;;;;;;7.25;6.50;;;10.30;99.90;;;;;;5106155;28;20246;-87
2022/10/08 04:41:39;;;;;;;7.18;6.45;;;10.30;99.90;;;;;;5108521;28;20203;-86
2022/10/08 04:44:09;;;;;;;9.63;6.45;;;10.40;99.90;;;;;;5113170;28;20199;-86
2022/10/08 04:46:45;;;;;;;7.22;6.28;;;10.40;99.90;;;;;;5107152;28;20284;-86
2022/10/08 04:49:13;;;;;;;8.30;6.60;;;10.40;99.90;;;;;;5112149;28;20279;-86
2022/10/08 04:51:40;;;;;;;8.18;6.05;;;10.40;99.90;;;;;;5111181;28;20198;-86
2022/10/08 04:54:35;;;;;;;7.55;6.05;;;10.40;99.90;;;;;;5112840;28;20220;-86
2022/10/08 04:57:04;;;;;;;7.13;6.00;;;10.50;99.90;;;;;;5105505;28;20197;-86
2022/10/08 04:59:33;;;;;;;8.07;6.60;;;10.60;99.90;;;;;;5108135;28;20199;-87
2022/10/08 05:02:09;;;;;;;6.90;6.05;;;10.60;99.90;;;;;;5106418;27;20196;-86
2022/10/08 05:04:45;;;;;;;8.00;6.22;;;10.60;99.90;;;;;;5116520;27;20294;-86
2022/10/08 05:07:33;;;;;;;7.75;6.20;;;10.70;99.90;;;;;;5114985;28;20283;-86
2022/10/08 05:10:23;;;;;;;7.55;6.18;;;10.80;99.90;;;;;;5112295;27;20715;-86
2022/10/08 05:13:03;;;;;;;8.48;6.30;;;10.80;99.90;;;;;;5106885;27;20193;-86
2022/10/08 05:15:39;;;;;;;6.72;5.95;;;10.80;99.90;;;;;;5106100;27;20234;-86
2022/10/08 05:18:09;;;;;;;9.80;5.95;;;10.90;99.90;;;;;;5111478;27;20579;-86
2022/10/08 05:24:06;;;;;;;7.78;6.38;;;10.80;99.90;;;;;;5114296;27;20201;-86
2022/10/08 05:26:47;;;;;;;8.93;6.30;;;10.80;99.90;;;;;;5121859;27;20559;-85
2022/10/08 05:29:21;;;;;;;7.63;6.25;;;10.80;99.90;;;;;;5106342;28;20214;-86
2022/10/08 05:31:52;;;;;;;9.40;5.43;;;10.80;99.90;;;;;;5108175;27;20201;-86
2022/10/08 05:34:18;;;;;;;7.40;6.13;;;10.80;99.90;;;;;;5110004;27;20215;-86
2022/10/08 05:37:05;;;;;;;7.40;5.60;;;10.90;99.90;;;;;;5106375;27;20703;-86
2022/10/08 05:39:35;;;;;;;6.60;5.80;;;10.90;99.90;;;;;;5112423;27;20282;-86
2022/10/08 05:42:04;;;;;;;6.55;5.28;;;11.00;99.90;;;;;;5108062;28;20541;-86
2022/10/08 05:44:33;;;;;;;5.97;5.45;;;11.10;99.90;;;;;;5110091;28;20206;-86
2022/10/08 05:47:04;;;;;;;7.22;5.68;;;11.20;99.90;;;;;;5106036;28;20268;-90
2022/10/08 05:49:34;;;;;;;6.35;5.68;;;11.20;99.90;;;;;;5113485;27;20738;-86
2022/10/08 05:52:09;;;;;;;7.55;5.22;;;11.30;99.90;;;;;;5099976;28;20216;-85
2022/10/08 05:54:51;;;;;;;5.70;5.10;;;11.40;99.90;;;;;;5119927;27;20211;-87
2022/10/08 05:57:21;;;;;;;7.03;5.30;;;11.40;99.90;;;;;;5108177;27;20196;-86
2022/10/08 06:00:17;;;;;;;6.93;5.55;;;11.40;99.90;;;;;;5103486;28;20288;-87
2022/10/08 06:02:44;;;;;;;6.80;5.38;;;11.40;99.90;;;;;;5108783;27;20208;-86
2022/10/08 06:05:33;;;;;;;6.70;5.10;;;11.40;99.90;;;;;;5112990;27;20223;-86
2022/10/08 06:08:09;;;;;;;8.35;5.15;;;11.50;99.90;;;;;;5120561;27;20255;-85
2022/10/08 06:10:48;;;;;;;6.43;5.00;;;11.60;99.90;;;;;;5105704;27;20208;-88
2022/10/08 06:13:17;;;;;;;9.13;5.22;;;11.70;99.90;;;;;;5107073;28;20284;-86
2022/10/08 06:15:53;;;;;;;5.70;5.10;;;11.80;99.90;;;;;;5111101;28;20267;-85
2022/10/08 06:19:10;;;;;;;5.72;5.03;;;11.90;99.90;;;;;;5113934;27;20192;-85
2022/10/08 06:21:37;;;;;;;5.65;4.70;;;11.90;99.90;;;;;;5123884;27;20223;-85
2022/10/08 06:24:22;;;;;;;6.40;4.53;;;11.90;99.90;;;;;;5120027;27;20195;-86
2022/10/08 06:26:57;;;;;;;5.22;4.70;;;12.00;99.90;;;;;;5109368;27;20222;-85
2022/10/08 06:29:29;;;;;;;9.15;4.72;;;12.00;99.90;;;;;;5108326;28;20292;-86
2022/10/08 06:31:57;;;;;;;10.48;4.68;;;12.20;99.90;;;;;;5112290;27;20207;-86
2022/10/08 06:34:27;;;;;;;5.80;5.20;;;12.40;99.90;;;;;;5102834;28;20227;-86
2022/10/08 06:36:58;;;;;;;5.10;4.57;;;12.40;99.90;;;;;;5114130;27;20263;-86
2022/10/08 06:39:27;;;;;;;5.55;4.75;;;12.50;99.90;;;;;;5111157;28;20285;-86
2022/10/08 06:41:57;;;;;;;5.00;4.40;;;12.60;99.90;;;;;;5100637;28;20211;-87
2022/10/08 06:44:35;;;;;;;6.43;4.75;;;12.80;99.90;;;;;;5108094;28;20204;-87
2022/10/08 06:47:09;;;;;;;7.50;4.43;;;12.90;99.90;;;;;;5108324;27;20639;-86
2022/10/08 06:49:57;;;;;;;5.47;4.53;;;13.10;99.90;;;;;;5109097;28;20291;-87
2022/10/08 06:52:25;;;;;;;4.93;4.15;;;13.30;99.90;;;;;;5113829;28;20210;-87
2022/10/08 06:54:52;;;;;;;7.70;4.60;;;13.30;99.90;;;;;;5106321;28;20205;-86
2022/10/08 06:57:22;;;;;;;6.45;4.47;;;13.40;99.90;;;;;;5108326;27;20730;-87
2022/10/08 06:59:56;;;;;;;7.60;4.70;;;13.50;99.90;;;;;;5103710;27;20205;-87
2022/10/08 07:02:27;;;;;;;5.82;4.65;;;13.60;99.90;;;;;;5099281;28;20279;-87
2022/10/08 07:05:10;;;;;;;4.80;4.30;;;13.80;99.90;;;;;;5104918;28;20212;-87
2022/10/08 07:07:37;;;;;;;5.18;4.07;;;13.90;99.90;;;;;;5104229;28;20204;-88
2022/10/08 07:10:05;;;;;;;4.50;4.10;;;14.00;99.90;;;;;;5101288;27;20288;-88
2022/10/08 07:12:32;;;;;;;5.03;4.53;;;14.30;99.90;;;;;;5105184;28;20195;-88
2022/10/08 07:15:02;;;;;;;5.90;4.30;;;14.40;99.90;;;;;;5101883;28;20223;-89
2022/10/08 07:17:34;;;;;;;7.22;4.32;;;14.50;99.90;;;;;;5102338;28;20211;-87
2022/10/08 07:20:05;;;;;;;6.15;4.05;;;14.60;99.90;;;;;;5107233;28;20199;-88
2022/10/08 07:22:34;;;;;;;6.35;4.00;;;14.70;99.90;;;;;;5103664;28;20196;-88
2022/10/08 07:25:46;;;;;;;6.00;4.22;;;14.70;99.90;;;;;;5097810;28;20271;-90
2022/10/08 07:28:22;;;;;;;6.18;4.15;;;14.80;99.90;;;;;;5100850;28;20227;-89
2022/10/08 07:31:07;;;;;;;6.03;4.50;;;14.80;99.90;;;;;;5102649;28;20664;-88
2022/10/08 07:33:46;;;;;;;5.95;4.05;;;14.70;99.90;;;;;;5104732;28;20211;-89
2022/10/08 07:36:17;;;;;;;5.03;4.03;;;14.70;99.90;;;;;;5097832;28;20290;-89
2022/10/08 07:38:46;;;;;;;7.72;4.88;;;14.80;99.90;;;;;;5100117;28;20193;-90
2022/10/08 07:41:18;;;;;;;5.30;4.00;;;14.80;99.90;;;;;;5083197;28;20255;-90
2022/10/08 07:43:50;;;;;;;6.95;4.40;;;14.80;99.90;;;;;;5098349;28;20271;-90
2022/10/08 07:46:47;;;;;;;6.63;4.50;;;14.90;99.90;;;;;;5104637;28;20275;-90
2022/10/08 07:49:22;;;;;;;8.82;5.07;;;15.10;99.90;;;;;;5101894;28;20215;-90
2022/10/08 07:51:56;;;;;;;10.02;5.40;;;15.40;99.90;;;;;;5109712;28;20288;-89
2022/10/08 07:54:27;;;;;;;7.30;4.57;;;15.60;99.70;;;;;;5098519;28;20201;-90
2022/10/08 07:57:15;;;;;;;6.57;4.82;;;15.80;99.00;;;;;;5100654;28;21129;-90
2022/10/08 07:59:58;;;;;;;11.35;5.07;;;16.00;98.70;;;;;;5099373;28;20282;-90
2022/10/08 08:03:05;;;;;;;7.28;4.45;;;16.00;98.00;;;;;;5104183;28;20416;-89
2022/10/08 08:05:43;;;;;;;7.63;5.25;;;16.20;97.20;;;;;;5101980;28;20243;-87
2022/10/08 08:08:30;;;;;;;8.82;4.18;;;16.40;97.40;;;;;;5101673;28;20199;-88
2022/10/08 08:11:06;;;;;;;10.05;4.68;;;16.60;97.30;;;;;;5101575;28;20231;-87
2022/10/08 08:14:16;;;;;;;8.40;4.50;;;16.80;97.30;;;;;;5110179;28;20192;-85
2022/10/08 08:16:58;;;;;;;6.88;4.63;;;17.00;96.20;;;;;;5108379;28;20314;-89
2022/10/08 08:22:35;;;;;;;8.05;4.38;;;17.30;94.80;;;;;;5102440;28;20561;-86
2022/10/08 08:25:02;;;;;;;8.20;4.65;;;17.50;94.50;;;;;;5106027;28;20203;-86
2022/10/08 08:27:46;;;;;;;10.05;5.00;;;17.70;93.90;;;;;;5111832;28;20199;-86
2022/10/08 08:30:14;;;;;;;5.63;4.38;;;18.00;93.10;;;;;;5109883;28;20275;-86
2022/10/08 08:32:46;;;;;;;7.32;4.35;;;18.20;92.90;;;;;;5109033;28;20635;-86
2022/10/08 08:35:13;;;;;;;5.10;3.90;;;18.40;90.50;;;;;;5115365;28;20224;-86
2022/10/08 08:37:42;;;;;;;5.82;3.70;;;18.50;88.50;;;;;;5114535;28;20255;-86
2022/10/08 08:40:10;;;;;;;5.57;3.80;;;18.60;90.40;;;;;;5107053;28;20715;-88
2022/10/08 08:42:53;;;;;;;8.57;4.35;;;18.70;90.30;;;;;;5108870;28;20193;-87
2022/10/08 08:45:30;;;;;;;5.65;4.15;;;18.80;87.10;;;;;;5109148;28;20288;-86
2022/10/08 08:48:04;;;;;;;5.20;3.78;;;18.90;87.00;;;;;;5109826;27;20203;-86
2022/10/08 08:50:53;;;;;;;6.10;3.95;;;18.80;83.60;;;;;;5104964;27;20282;-86
2022/10/08 08:53:22;;;;;;;7.65;4.20;;;18.70;85.20;;;;;;5106820;27;20204;-87
2022/10/08 08:55:54;;;;;;;6.25;4.03;;;18.70;86.80;;;;;;5108096;27;20212;-86
2022/10/08 08:58:33;;;;;;;5.57;3.42;;;18.70;88.00;;;;;;5107467;28;20236;-87
2022/10/08 09:01:13;;;;;;;9.93;4.30;;;18.90;87.80;;;;;;5110346;27;20192;-87
2022/10/08 09:03:44;;;;;;;8.45;3.85;;;18.80;84.30;;;;;;5104135;27;20219;-87
2022/10/08 09:06:18;;;;;;;10.32;4.53;;;18.80;84.90;;;;;;5107814;28;20220;-91
2022/10/08 09:09:19;;;;;;;8.18;4.18;;;19.00;81.30;;;;;;5108922;28;20565;-88
2022/10/08 09:11:58;;;;;;;5.78;3.70;;;18.90;80.00;;;;;;5093619;28;20231;-90
2022/10/08 09:14:34;;;;;;;7.28;4.28;;;18.80;80.90;;;;;;5106879;28;20200;-86
2022/10/08 09:17:15;;;;;;;5.88;3.78;;;18.80;82.90;;;;;;5108762;28;20292;-86
2022/10/08 09:19:43;;;;;;;11.90;4.15;;;18.90;81.00;;;;;;5109991;27;20195;-86
2022/10/08 09:22:40;;;;;;;12.25;3.80;;;19.00;80.10;;;;;;5102037;28;20220;-86
2022/10/08 09:25:16;;;;;;;8.13;4.28;;;19.00;80.10;;;;;;5101183;28;20193;-86
2022/10/08 09:27:45;;;;;;;8.00;3.90;;;19.00;80.10;;;;;;5106249;28;20191;-87
2022/10/08 09:30:31;;;;;;;6.57;4.03;;;19.00;80.10;;;;;;5106351;28;20264;-86
2022/10/08 09:33:21;;;;;;;8.68;3.88;;;19.20;77.20;;;;;;5105696;28;20196;-87
2022/10/08 09:36:09;;;;;;;6.65;3.97;;;19.10;75.80;;;;;;5103755;27;20212;-87
2022/10/08 09:38:38;;;;;;;6.10;3.83;;;19.10;77.10;;;;;;5110417;28;20205;-87
2022/10/08 09:41:17;;;;;;;11.90;4.38;;;19.10;78.10;;;;;;5100903;28;20189;-88
2022/10/08 09:44:15;;;;;;;8.65;4.35;;;19.20;77.40;;;;;;5099996;28;20192;-88
2022/10/08 09:46:46;;;;;;;8.25;4.18;;;19.20;77.50;;;;;;5104994;27;20196;-88
2022/10/08 09:49:29;;;;;;;8.25;4.13;;;19.10;80.20;;;;;;5102742;28;20241;-87
2022/10/08 09:52:00;;;;;;;8.15;3.85;;;19.20;80.20;;;;;;5105709;28;20222;-88
2022/10/08 09:54:30;;;;;;;10.68;4.70;;;19.40;78.20;;;;;;5105434;28;20207;-87
2022/10/08 09:57:00;;;;;;;8.15;3.63;;;19.70;76.80;;;;;;5110072;28;20230;-86
2022/10/08 09:59:30;;;;;;;7.35;4.00;;;19.80;73.60;;;;;;5106778;28;20615;-86
2022/10/08 10:01:58;;;;;;;6.50;3.83;;;19.90;73.20;;;;;;5104876;28;20200;-88
2022/10/08 10:04:33;;;;;;;9.23;4.10;;;20.10;73.40;;;;;;5110096;28;20202;-87
2022/10/08 10:07:38;;;;;;;8.40;4.05;;;20.30;70.00;;;;;;5107689;28;20203;-87
2022/10/08 10:10:17;;;;;;;8.07;4.10;;;20.60;68.30;;;;;;5106629;28;20643;-84
2022/10/08 10:12:51;;;;;;;7.68;3.78;;;21.10;66.40;;;;;;5102345;28;20227;-83
2022/10/08 10:15:26;;;;;;;8.65;3.40;;;21.40;57.20;;;;;;5110487;28;20196;-82
2022/10/08 10:18:11;;;;;;;11.38;4.22;;;21.10;50.90;;;;;;5107176;28;20245;-82
2022/10/08 10:20:43;;;;;;;8.00;4.07;;;20.80;53.10;;;;;;5103310;28;20218;-82
2022/10/08 10:23:14;;;;;;;9.88;3.90;;;21.00;52.70;;;;;;5105525;28;20203;-82
2022/10/08 10:25:49;;;;;;;8.27;3.70;;;21.20;51.70;;;;;;5110614;28;20271;-82
2022/10/08 10:28:33;;;;;;;7.75;3.80;;;21.30;50.70;;;;;;5115623;28;20290;-84
2022/10/08 10:31:05;;;;;;;8.13;3.50;;;21.20;49.50;;;;;;5115955;28;20226;-84
2022/10/08 10:33:41;;;;;;;9.20;3.92;;;20.90;51.50;;;;;;5116714;28;20804;-84
2022/10/08 10:36:13;;;;;;;6.47;4.00;;;20.90;51.70;;;;;;5109935;28;20217;-85
2022/10/08 10:39:03;;;;;;;6.55;3.58;;;20.70;52.60;;;;;;5108197;28;20200;-87
2022/10/08 10:41:42;;;;;;;14.38;4.00;;;20.50;53.90;;;;;;5115505;28;20206;-87
2022/10/08 10:44:14;;;;;;;8.85;4.40;;;20.20;56.10;;;;;;5109475;28;20632;-88
2022/10/08 10:46:44;;;;;;;12.38;4.63;;;19.90;56.10;;;;;;5107800;28;20199;-87
2022/10/08 10:49:18;;;;;;;10.38;3.97;;;19.80;60.00;;;;;;5102062;28;20189;-86
2022/10/08 10:51:59;;;;;;;9.48;4.30;;;19.40;69.40;;;;;;5102773;28;20191;-88
2022/10/08 10:55:01;;;;;;;13.52;4.90;;;19.30;71.00;;;;;;5085907;28;20212;-86
2022/10/08 10:57:45;;;;;;;11.55;4.20;;;19.10;73.10;;;;;;5033882;28;20336;-86
2022/10/08 11:00:23;;;;;;;11.57;4.20;;;19.00;73.50;;;;;;5026170;28;20202;-86
2022/10/08 11:02:59;;;;;;;13.48;4.68;;;19.00;76.40;;;;;;5030301;28;20586;-86
2022/10/08 11:05:31;;;;;;;7.93;4.55;;;18.90;76.10;;;;;;5025044;28;20261;-87
2022/10/08 11:08:29;;;;;;;11.65;4.60;;;18.90;75.40;;;;;;5028208;28;20279;-87
2022/10/08 11:11:19;;;;;;;9.88;4.60;;;18.90;75.80;;;;;;5032166;28;20210;-87
2022/10/08 11:14:33;;;;;;;11.10;4.50;;;18.90;75.50;;;;;;5018613;28;20203;-87
2022/10/08 11:17:42;;;;;;;10.48;4.25;;;18.70;75.40;;;;;;5020177;28;20694;-86
2022/10/08 11:20:43;;;;;;;10.50;4.30;;;18.80;74.60;;;;;;4951333;28;20212;-87
2022/10/08 11:23:33;;;;;;;9.18;4.35;;;18.70;75.50;;;;;;4933368;29;20205;-86
2022/10/08 11:26:26;;;;;;;11.80;4.65;;;18.30;79.60;;;;;;4952318;28;20729;-87
2022/10/08 11:29:08;;;;;;;11.00;4.53;;;18.30;79.60;;;;;;4942145;29;20205;-86
2022/10/08 11:31:41;;;;;;;9.38;4.85;;;18.20;81.50;;;;;;4959977;28;20286;-86
2022/10/08 11:34:20;;;;;;;10.35;4.95;;;18.10;81.70;;;;;;4979728;28;20203;-86
2022/10/08 11:37:06;;;;;;;22.67;12.18;;;18.00;83.10;;;;;;5033241;28;20222;-86
2022/10/08 11:39:48;;;;;;;15.27;6.75;;;18.00;83.60;;;;;;5030635;28;21150;-87
2022/10/08 11:42:19;;;;;;;11.98;4.72;;;18.00;82.40;;;;;;5028685;28;20195;-87
2022/10/08 11:45:33;;;;;;;9.02;4.75;;;17.90;85.20;;;;;;5030718;28;20221;-86
2022/10/08 11:48:32;;;;;;;12.38;5.25;;;17.80;85.90;;;;;;4954177;28;20707;-86
2022/10/08 11:51:39;;;;;;;10.35;5.68;;;17.70;87.80;;;;;;4948026;28;20210;-86
2022/10/08 11:57:20;;;;;;;8.75;6.20;;;17.60;88.90;;;;;;5120654;27;20612;-87
2022/10/08 11:59:57;;;;;;;12.73;5.63;;;17.70;86.90;;;;;;5130811;27;20199;-87
2022/10/08 12:02:42;;;;;;;10.18;4.75;;;17.70;87.20;;;;;;5129559;27;20195;-88
2022/10/08 12:05:42;;;;;;;9.57;4.88;;;17.70;88.10;;;;;;5130825;27;20218;-87
2022/10/08 12:11:52;;;;;;;15.00;5.90;;;17.70;87.80;;;;;;5126347;28;20551;-89
2022/10/08 12:17:54;;;;;;;13.48;5.10;;;17.60;87.20;;;;;;5128097;27;20198;-89
2022/10/08 12:20:31;;;;;;;13.50;5.00;;;17.50;87.80;;;;;;5136679;27;20242;-88
2022/10/08 12:23:06;;;;;;;11.75;5.10;;;17.60;87.80;;;;;;5125090;27;20195;-90
2022/10/08 12:26:01;;;;;;;10.32;5.45;;;17.60;88.60;;;;;;5124762;27;20249;-88
2022/10/08 12:28:58;;;;;;;13.40;5.75;;;17.60;88.50;;;;;;5125600;27;20195;-88
2022/10/08 12:31:31;;;;;;;13.15;5.68;;;17.60;88.90;;;;;;5127878;27;20567;-88
2022/10/08 12:34:17;;;;;;;14.68;5.60;;;17.50;90.10;;;;;;5127293;27;20688;-89
2022/10/08 12:36:55;;;;;;;10.40;5.75;;;17.50;89.30;;;;;;5131791;27;20221;-90
2022/10/08 12:39:36;;;;;;;12.10;5.65;;;17.50;89.40;;;;;;5136016;27;20192;-88
2022/10/08 12:42:13;;;;;;;14.43;6.00;;;17.50;90.20;;;;;;5133198;27;20195;-89
2022/10/08 12:45:00;;;;;;;12.98;5.78;;;17.50;90.40;;;;;;5124910;27;20191;-88
2022/10/08 12:47:38;;;;;;;10.63;5.63;;;17.50;90.00;;;;;;5134528;27;20199;-88
2022/10/08 12:50:32;;;;;;;10.05;5.57;;;17.60;90.00;;;;;;5131857;27;20498;-88
2022/10/08 12:53:06;;;;;;;11.75;5.18;;;17.60;89.80;;;;;;5077764;28;20668;-88
2022/10/08 12:55:37;;;;;;;11.57;5.95;;;17.60;90.30;;;;;;5080905;28;20737;-88
2022/10/08 12:58:57;;;;;;;13.02;5.63;;;17.70;89.40;;;;;;5090534;28;20202;-88
2022/10/08 13:01:34;;;;;;;14.55;5.45;;;17.50;90.40;;;;;;5075585;28;20291;-87
2022/10/08 13:04:21;;;;;;;11.38;5.85;;;17.50;90.30;;;;;;5083328;28;20207;-87
2022/10/08 13:06:51;;;;;;;10.63;5.80;;;17.40;90.40;;;;;;5079875;28;20204;-88
2022/10/08 13:09:35;;;;;;;11.60;5.32;;;17.40;90.00;;;;;;5070181;28;20212;-88
2022/10/08 13:12:16;;;;;;;13.43;6.13;;;17.40;90.20;;;;;;5064785;28;20262;-86
2022/10/08 13:14:43;;;;;;;11.18;6.05;;;17.50;90.40;;;;;;5075364;28;20204;-87
2022/10/08 13:17:28;;;;;;;14.25;6.63;;;17.40;90.70;;;;;;5070293;28;20228;-86
2022/10/08 13:20:12;;;;;;;12.82;5.97;;;17.30;90.90;;;;;;5070053;28;20203;-87
2022/10/08 13:22:42;;;;;;;12.90;5.72;;;17.30;91.00;;;;;;5071911;28;20259;-87
2022/10/08 13:25:37;;;;;;;9.95;6.15;;;17.30;91.30;;;;;;5070089;28;20239;-87
2022/10/08 13:28:12;;;;;;;12.85;6.00;;;17.40;91.30;;;;;;5067045;28;20197;-86
2022/10/08 13:30:41;;;;;;;13.45;5.70;;;17.40;91.30;;;;;;5105683;28;20275;-87
2022/10/08 13:33:23;;;;;;;11.32;6.13;;;17.30;91.70;;;;;;5106053;27;20196;-86
2022/10/08 13:36:00;;;;;;;11.23;7.38;;;17.10;92.00;;;;;;5117450;27;20281;-86
2022/10/08 13:38:36;;;;;;;12.48;7.50;;;17.10;92.40;;;;;;5114887;27;20666;-86
2022/10/08 13:41:22;;;;;;;10.60;7.25;;;17.00;93.20;;;;;;5104299;28;20288;-87
2022/10/08 13:43:52;;;;;;;13.20;7.60;;;17.00;93.50;;;;;;5108630;27;20638;-87
2022/10/08 13:46:19;;;;;;;15.25;8.52;;;17.00;94.20;;;;;;5117997;27;20194;-87
2022/10/08 13:49:18;;;;;;;13.38;7.90;;;17.00;94.30;;;;;;5117269;27;20195;-85
2022/10/08 13:51:45;;;;;;;11.88;8.82;;;16.90;94.80;;;;;;5104649;27;20197;-88
2022/10/08 13:54:23;;;;;;;13.57;8.32;;;16.90;94.90;;;;;;5112033;27;20200;-84